sensor_id;sensor_type;location;lat;lon;timestamp;temperature;humidity
2897;DHT22;1458;49.728;9.228;2023-02-15T00:02:03;3.30;99.90
2897;DHT22;1458;49.728;9.228;2023-02-15T00:04:30;3.10;99.90
2897;DHT22;1458;49.728;9.228;2023-02-15T00:07:24;3.10;99.90
2897;DHT22;1458;49.728;9.228;2023-02-15T00:09:51;3.00;99.90
2897;DHT22;1458;49.728;9.228;2023-02-15T00:12:22;2.90;99.90
2897;DHT22;1458;49.728;9.228;2023-02-15T00:14:49;2.80;99.90
2897;DHT22;1458;49.728;9.228;2023-02-15T00:17:16;2.90;99.90
2897;DHT22;1458;49.728;9.228;2023-02-15T00:19:44;2.80;99.90
2897;DHT22;1458;49.728;9.228;2023-02-15T00:22:11;3.00;99.90
2897;DHT22;1458;49.728;9.228;2023-02-15T00:24:40;2.90;99.90
2897;DHT22;1458;49.728;9.228;2023-02-15T00:27:07;2.90;99.90
2897;DHT22;1458;49.728;9.228;2023-02-15T00:29:35;3.00;99.90
2897;DHT22;1458;49.728;9.228;2023-02-15T00:32:03;3.00;99.90
2897;DHT22;1458;49.728;9.228;2023-02-15T00:34:32;2.90;99.90
2897;DHT22;1458;49.728;9.228;2023-02-15T00:36:59;3.00;99.90
2897;DHT22;1458;49.728;9.228;2023-02-15T00:39:37;3.00;99.90
2897;DHT22;1458;49.728;9.228;2023-02-15T00:42:06;3.20;99.90
2897;DHT22;1458;49.728;9.228;2023-02-15T00:44:34;3.00;99.90
2897;DHT22;1458;49.728;9.228;2023-02-15T00:47:03;3.00;99.90
2897;DHT22;1458;49.728;9.228;2023-02-15T00:49:30;2.90;99.90
2897;DHT22;1458;49.728;9.228;2023-02-15T00:51:57;2.90;99.90
2897;DHT22;1458;49.728;9.228;2023-02-15T00:54:25;2.90;99.90
2897;DHT22;1458;49.728;9.228;2023-02-15T00:56:53;2.90;99.90
2897;DHT22;1458;49.728;9.228;2023-02-15T00:59:21;2.90;99.90
2897;DHT22;1458;49.728;9.228;2023-02-15T01:04:57;3.00;99.90
2897;DHT22;1458;49.728;9.228;2023-02-15T01:07:25;3.10;99.90
2897;DHT22;1458;49.728;9.228;2023-02-15T01:09:52;3.00;99.90
2897;DHT22;1458;49.728;9.228;2023-02-15T01:12:21;3.00;99.90
2897;DHT22;1458;49.728;9.228;2023-02-15T01:14:48;2.90;99.90
2897;DHT22;1458;49.728;9.228;2023-02-15T01:17:15;2.90;99.90
2897;DHT22;1458;49.728;9.228;2023-02-15T01:19:43;2.90;99.90
2897;DHT22;1458;49.728;9.228;2023-02-15T01:22:10;2.90;99.90
2897;DHT22;1458;49.728;9.228;2023-02-15T01:24:37;2.90;99.90
2897;DHT22;1458;49.728;9.228;2023-02-15T01:27:05;2.90;99.90
2897;DHT22;1458;49.728;9.228;2023-02-15T01:29:34;2.90;99.90
2897;DHT22;1458;49.728;9.228;2023-02-15T01:32:02;2.90;99.90
2897;DHT22;1458;49.728;9.228;2023-02-15T01:34:30;2.90;99.90
2897;DHT22;1458;49.728;9.228;2023-02-15T01:36:57;2.90;99.90
2897;DHT22;1458;49.728;9.228;2023-02-15T01:39:25;2.80;99.90
2897;DHT22;1458;49.728;9.228;2023-02-15T01:41:52;2.80;99.90
2897;DHT22;1458;49.728;9.228;2023-02-15T01:47:30;2.80;99.90
2897;DHT22;1458;49.728;9.228;2023-02-15T01:50:06;2.90;99.90
2897;DHT22;1458;49.728;9.228;2023-02-15T01:52:37;2.80;99.90
2897;DHT22;1458;49.728;9.228;2023-02-15T01:55:08;2.80;99.90
2897;DHT22;1458;49.728;9.228;2023-02-15T01:57:36;2.80;99.90
2897;DHT22;1458;49.728;9.228;2023-02-15T02:00:06;2.80;99.90
2897;DHT22;1458;49.728;9.228;2023-02-15T02:02:45;2.80;99.90
2897;DHT22;1458;49.728;9.228;2023-02-15T02:05:15;2.70;99.90
2897;DHT22;1458;49.728;9.228;2023-02-15T02:07:44;2.70;99.90
2897;DHT22;1458;49.728;9.228;2023-02-15T02:10:14;2.90;99.90
2897;DHT22;1458;49.728;9.228;2023-02-15T02:12:44;2.80;99.90
2897;DHT22;1458;49.728;9.228;2023-02-15T02:15:15;2.80;99.90
2897;DHT22;1458;49.728;9.228;2023-02-15T02:17:55;2.80;99.90
2897;DHT22;1458;49.728;9.228;2023-02-15T02:24:28;2.80;99.90
2897;DHT22;1458;49.728;9.228;2023-02-15T02:27:29;2.80;99.90
2897;DHT22;1458;49.728;9.228;2023-02-15T02:33:24;3.00;99.90
2897;DHT22;1458;49.728;9.228;2023-02-15T02:36:06;2.80;99.90
2897;DHT22;1458;49.728;9.228;2023-02-15T02:38:50;2.70;99.90
2897;DHT22;1458;49.728;9.228;2023-02-15T02:41:27;2.70;99.90
2897;DHT22;1458;49.728;9.228;2023-02-15T02:44:07;2.70;99.90
2897;DHT22;1458;49.728;9.228;2023-02-15T02:46:41;2.80;99.90
2897;DHT22;1458;49.728;9.228;2023-02-15T02:49:14;2.80;99.90
2897;DHT22;1458;49.728;9.228;2023-02-15T02:51:41;2.90;99.90
2897;DHT22;1458;49.728;9.228;2023-02-15T02:54:09;2.90;99.90
2897;DHT22;1458;49.728;9.228;2023-02-15T02:56:42;2.80;99.90
2897;DHT22;1458;49.728;9.228;2023-02-15T02:59:16;2.80;99.90
2897;DHT22;1458;49.728;9.228;2023-02-15T03:01:51;2.80;99.90
2897;DHT22;1458;49.728;9.228;2023-02-15T03:04:25;2.80;99.90
2897;DHT22;1458;49.728;9.228;2023-02-15T03:06:57;2.80;99.90
2897;DHT22;1458;49.728;9.228;2023-02-15T03:09:30;2.80;99.90
2897;DHT22;1458;49.728;9.228;2023-02-15T03:12:08;2.80;99.90
2897;DHT22;1458;49.728;9.228;2023-02-15T03:14:41;2.90;99.90
2897;DHT22;1458;49.728;9.228;2023-02-15T03:17:11;2.90;99.90
2897;DHT22;1458;49.728;9.228;2023-02-15T03:19:42;2.90;99.90
2897;DHT22;1458;49.728;9.228;2023-02-15T03:22:15;2.80;99.90
2897;DHT22;1458;49.728;9.228;2023-02-15T03:24:50;2.90;99.90
2897;DHT22;1458;49.728;9.228;2023-02-15T03:27:26;2.80;99.90
2897;DHT22;1458;49.728;9.228;2023-02-15T03:29:58;2.90;99.90
2897;DHT22;1458;49.728;9.228;2023-02-15T03:32:28;2.90;99.90
2897;DHT22;1458;49.728;9.228;2023-02-15T03:34:59;2.90;99.90
2897;DHT22;1458;49.728;9.228;2023-02-15T03:37:30;2.80;99.90
2897;DHT22;1458;49.728;9.228;2023-02-15T03:40:05;2.80;99.90
2897;DHT22;1458;49.728;9.228;2023-02-15T03:42:53;2.70;99.90
2897;DHT22;1458;49.728;9.228;2023-02-15T03:45:28;2.70;99.90
2897;DHT22;1458;49.728;9.228;2023-02-15T03:47:59;2.80;99.90
2897;DHT22;1458;49.728;9.228;2023-02-15T03:50:30;2.80;99.90
2897;DHT22;1458;49.728;9.228;2023-02-15T03:53:19;2.60;99.90
2897;DHT22;1458;49.728;9.228;2023-02-15T03:55:48;2.60;99.90
2897;DHT22;1458;49.728;9.228;2023-02-15T03:58:16;2.60;99.90
2897;DHT22;1458;49.728;9.228;2023-02-15T04:01:05;2.60;99.90
2897;DHT22;1458;49.728;9.228;2023-02-15T04:03:59;2.70;99.90
2897;DHT22;1458;49.728;9.228;2023-02-15T04:06:30;2.80;99.90
2897;DHT22;1458;49.728;9.228;2023-02-15T04:08:57;2.60;99.90
2897;DHT22;1458;49.728;9.228;2023-02-15T04:11:42;2.60;99.90
2897;DHT22;1458;49.728;9.228;2023-02-15T04:14:09;2.70;99.90
2897;DHT22;1458;49.728;9.228;2023-02-15T04:16:50;2.70;99.90
2897;DHT22;1458;49.728;9.228;2023-02-15T04:19:19;2.70;99.90
2897;DHT22;1458;49.728;9.228;2023-02-15T04:22:05;2.70;99.90
2897;DHT22;1458;49.728;9.228;2023-02-15T04:24:50;2.80;99.90
2897;DHT22;1458;49.728;9.228;2023-02-15T04:27:35;2.80;99.90
2897;DHT22;1458;49.728;9.228;2023-02-15T04:30:03;2.70;99.90
2897;DHT22;1458;49.728;9.228;2023-02-15T04:32:34;2.60;99.90
2897;DHT22;1458;49.728;9.228;2023-02-15T04:35:02;2.40;99.90
2897;DHT22;1458;49.728;9.228;2023-02-15T04:37:32;2.40;99.90
2897;DHT22;1458;49.728;9.228;2023-02-15T04:40:00;2.50;99.90
2897;DHT22;1458;49.728;9.228;2023-02-15T04:42:27;2.50;99.90
2897;DHT22;1458;49.728;9.228;2023-02-15T04:44:54;2.40;99.90
2897;DHT22;1458;49.728;9.228;2023-02-15T04:47:22;2.40;99.90
2897;DHT22;1458;49.728;9.228;2023-02-15T04:49:49;2.40;99.90
2897;DHT22;1458;49.728;9.228;2023-02-15T04:52:17;2.50;99.90
2897;DHT22;1458;49.728;9.228;2023-02-15T04:54:46;2.40;99.90
2897;DHT22;1458;49.728;9.228;2023-02-15T04:57:13;2.40;99.90
2897;DHT22;1458;49.728;9.228;2023-02-15T04:59:41;2.40;99.90
2897;DHT22;1458;49.728;9.228;2023-02-15T05:02:08;2.40;99.90
2897;DHT22;1458;49.728;9.228;2023-02-15T05:04:35;2.50;99.90
2897;DHT22;1458;49.728;9.228;2023-02-15T05:07:03;2.50;99.90
2897;DHT22;1458;49.728;9.228;2023-02-15T05:09:30;2.40;99.90
2897;DHT22;1458;49.728;9.228;2023-02-15T05:11:59;2.40;99.90
2897;DHT22;1458;49.728;9.228;2023-02-15T05:14:26;2.40;99.90
2897;DHT22;1458;49.728;9.228;2023-02-15T05:16:54;2.30;99.90
2897;DHT22;1458;49.728;9.228;2023-02-15T05:19:21;2.30;99.90
2897;DHT22;1458;49.728;9.228;2023-02-15T05:21:50;2.20;99.90
2897;DHT22;1458;49.728;9.228;2023-02-15T05:24:17;2.20;99.90
2897;DHT22;1458;49.728;9.228;2023-02-15T05:27:04;2.30;99.90
2897;DHT22;1458;49.728;9.228;2023-02-15T05:29:49;2.30;99.90
2897;DHT22;1458;49.728;9.228;2023-02-15T05:32:16;2.20;99.90
2897;DHT22;1458;49.728;9.228;2023-02-15T05:34:44;2.20;99.90
2897;DHT22;1458;49.728;9.228;2023-02-15T05:37:11;2.20;99.90
2897;DHT22;1458;49.728;9.228;2023-02-15T05:39:38;2.20;99.90
2897;DHT22;1458;49.728;9.228;2023-02-15T05:42:10;2.10;99.90
2897;DHT22;1458;49.728;9.228;2023-02-15T05:44:37;2.20;99.90
2897;DHT22;1458;49.728;9.228;2023-02-15T05:47:04;2.20;99.90
2897;DHT22;1458;49.728;9.228;2023-02-15T05:49:33;2.30;99.90
2897;DHT22;1458;49.728;9.228;2023-02-15T05:52:00;2.20;99.90
2897;DHT22;1458;49.728;9.228;2023-02-15T05:54:28;2.20;99.90
2897;DHT22;1458;49.728;9.228;2023-02-15T05:56:55;2.10;99.90
2897;DHT22;1458;49.728;9.228;2023-02-15T05:59:24;2.00;99.90
2897;DHT22;1458;49.728;9.228;2023-02-15T06:01:51;2.00;99.90
2897;DHT22;1458;49.728;9.228;2023-02-15T06:04:19;1.90;99.90
2897;DHT22;1458;49.728;9.228;2023-02-15T06:06:46;1.90;99.90
2897;DHT22;1458;49.728;9.228;2023-02-15T06:09:13;1.80;99.90
2897;DHT22;1458;49.728;9.228;2023-02-15T06:11:43;1.80;99.90
2897;DHT22;1458;49.728;9.228;2023-02-15T06:14:11;1.80;99.90
2897;DHT22;1458;49.728;9.228;2023-02-15T06:16:40;1.90;99.90
2897;DHT22;1458;49.728;9.228;2023-02-15T06:19:07;1.90;99.90
2897;DHT22;1458;49.728;9.228;2023-02-15T06:21:35;1.90;99.90
2897;DHT22;1458;49.728;9.228;2023-02-15T06:24:02;1.80;99.90
2897;DHT22;1458;49.728;9.228;2023-02-15T06:26:30;1.80;99.90
2897;DHT22;1458;49.728;9.228;2023-02-15T06:28:57;1.90;99.90
2897;DHT22;1458;49.728;9.228;2023-02-15T06:31:24;1.90;99.90
2897;DHT22;1458;49.728;9.228;2023-02-15T06:33:54;2.00;99.90
2897;DHT22;1458;49.728;9.228;2023-02-15T06:36:26;1.90;99.90
2897;DHT22;1458;49.728;9.228;2023-02-15T06:38:54;1.80;99.90
2897;DHT22;1458;49.728;9.228;2023-02-15T06:41:22;1.80;99.90
2897;DHT22;1458;49.728;9.228;2023-02-15T06:43:49;1.90;99.90
2897;DHT22;1458;49.728;9.228;2023-02-15T06:46:17;1.90;99.90
2897;DHT22;1458;49.728;9.228;2023-02-15T06:48:44;1.80;99.90
2897;DHT22;1458;49.728;9.228;2023-02-15T06:51:13;1.80;99.90
2897;DHT22;1458;49.728;9.228;2023-02-15T06:53:40;1.90;99.90
2897;DHT22;1458;49.728;9.228;2023-02-15T06:56:09;2.00;99.90
2897;DHT22;1458;49.728;9.228;2023-02-15T06:58:37;2.00;99.90
2897;DHT22;1458;49.728;9.228;2023-02-15T07:01:06;1.80;99.90
2897;DHT22;1458;49.728;9.228;2023-02-15T07:03:34;1.80;99.90
2897;DHT22;1458;49.728;9.228;2023-02-15T07:06:06;1.80;99.90
2897;DHT22;1458;49.728;9.228;2023-02-15T07:08:35;1.80;99.90
2897;DHT22;1458;49.728;9.228;2023-02-15T07:11:04;2.00;99.90
2897;DHT22;1458;49.728;9.228;2023-02-15T07:13:49;1.90;99.90
2897;DHT22;1458;49.728;9.228;2023-02-15T07:16:18;1.90;99.90
2897;DHT22;1458;49.728;9.228;2023-02-15T07:18:45;1.80;99.90
2897;DHT22;1458;49.728;9.228;2023-02-15T07:21:12;1.90;99.90
2897;DHT22;1458;49.728;9.228;2023-02-15T07:23:41;1.80;99.90
2897;DHT22;1458;49.728;9.228;2023-02-15T07:26:08;1.80;99.90
2897;DHT22;1458;49.728;9.228;2023-02-15T07:28:36;1.90;99.90
2897;DHT22;1458;49.728;9.228;2023-02-15T07:31:04;1.90;99.90
2897;DHT22;1458;49.728;9.228;2023-02-15T07:33:31;1.90;99.90
2897;DHT22;1458;49.728;9.228;2023-02-15T07:36:02;1.90;99.90
2897;DHT22;1458;49.728;9.228;2023-02-15T07:38:32;2.00;99.90
2897;DHT22;1458;49.728;9.228;2023-02-15T07:41:04;2.00;99.90
2897;DHT22;1458;49.728;9.228;2023-02-15T07:43:36;2.00;99.90
2897;DHT22;1458;49.728;9.228;2023-02-15T07:46:06;1.90;99.90
2897;DHT22;1458;49.728;9.228;2023-02-15T07:48:35;1.90;99.90
2897;DHT22;1458;49.728;9.228;2023-02-15T07:51:03;2.00;99.90
2897;DHT22;1458;49.728;9.228;2023-02-15T07:53:33;2.10;99.90
2897;DHT22;1458;49.728;9.228;2023-02-15T07:56:04;2.20;99.90
2897;DHT22;1458;49.728;9.228;2023-02-15T07:58:32;2.20;99.90
2897;DHT22;1458;49.728;9.228;2023-02-15T08:01:19;2.20;99.90
2897;DHT22;1458;49.728;9.228;2023-02-15T08:03:47;2.00;99.90
2897;DHT22;1458;49.728;9.228;2023-02-15T08:06:15;2.10;99.90
2897;DHT22;1458;49.728;9.228;2023-02-15T08:08:43;2.10;99.90
2897;DHT22;1458;49.728;9.228;2023-02-15T08:11:18;2.00;99.90
2897;DHT22;1458;49.728;9.228;2023-02-15T08:14:04;2.20;99.90
2897;DHT22;1458;49.728;9.228;2023-02-15T08:16:35;2.30;99.90
2897;DHT22;1458;49.728;9.228;2023-02-15T08:19:05;2.30;99.90
2897;DHT22;1458;49.728;9.228;2023-02-15T08:21:35;2.30;99.90
2897;DHT22;1458;49.728;9.228;2023-02-15T08:24:05;2.30;99.90
2897;DHT22;1458;49.728;9.228;2023-02-15T08:26:34;2.40;99.90
2897;DHT22;1458;49.728;9.228;2023-02-15T08:29:02;2.40;99.90
2897;DHT22;1458;49.728;9.228;2023-02-15T08:31:30;2.50;99.90
2897;DHT22;1458;49.728;9.228;2023-02-15T08:33:57;2.50;99.90
2897;DHT22;1458;49.728;9.228;2023-02-15T08:36:27;2.40;99.90
2897;DHT22;1458;49.728;9.228;2023-02-15T08:38:57;2.30;99.90
2897;DHT22;1458;49.728;9.228;2023-02-15T08:41:28;2.40;99.90
2897;DHT22;1458;49.728;9.228;2023-02-15T08:43:59;2.60;99.90
2897;DHT22;1458;49.728;9.228;2023-02-15T08:46:29;2.70;99.90
2897;DHT22;1458;49.728;9.228;2023-02-15T08:48:58;2.70;99.90
2897;DHT22;1458;49.728;9.228;2023-02-15T08:51:30;2.60;99.90
2897;DHT22;1458;49.728;9.228;2023-02-15T08:54:01;2.80;99.90
2897;DHT22;1458;49.728;9.228;2023-02-15T08:56:32;2.70;99.90
2897;DHT22;1458;49.728;9.228;2023-02-15T08:59:02;2.80;99.90
2897;DHT22;1458;49.728;9.228;2023-02-15T09:01:31;2.90;99.90
2897;DHT22;1458;49.728;9.228;2023-02-15T09:04:02;2.90;99.90
2897;DHT22;1458;49.728;9.228;2023-02-15T09:06:32;3.00;99.90
2897;DHT22;1458;49.728;9.228;2023-02-15T09:08:59;2.90;99.90
2897;DHT22;1458;49.728;9.228;2023-02-15T09:11:28;2.90;99.90
2897;DHT22;1458;49.728;9.228;2023-02-15T09:13:58;3.10;99.90
2897;DHT22;1458;49.728;9.228;2023-02-15T09:16:29;3.10;99.90
2897;DHT22;1458;49.728;9.228;2023-02-15T09:18:58;3.20;99.90
2897;DHT22;1458;49.728;9.228;2023-02-15T09:21:27;3.20;99.90
2897;DHT22;1458;49.728;9.228;2023-02-15T09:23:57;3.30;99.90
2897;DHT22;1458;49.728;9.228;2023-02-15T09:26:26;3.30;99.90
2897;DHT22;1458;49.728;9.228;2023-02-15T09:28:55;3.30;99.90
2897;DHT22;1458;49.728;9.228;2023-02-15T09:31:25;3.20;99.90
2897;DHT22;1458;49.728;9.228;2023-02-15T09:33:56;3.20;99.90
2897;DHT22;1458;49.728;9.228;2023-02-15T09:36:25;3.20;99.90
2897;DHT22;1458;49.728;9.228;2023-02-15T09:38:56;3.10;99.90
2897;DHT22;1458;49.728;9.228;2023-02-15T09:41:40;3.00;99.90
2897;DHT22;1458;49.728;9.228;2023-02-15T09:44:27;3.40;99.90
2897;DHT22;1458;49.728;9.228;2023-02-15T09:50:12;3.70;99.90
2897;DHT22;1458;49.728;9.228;2023-02-15T09:53:01;3.60;99.90
2897;DHT22;1458;49.728;9.228;2023-02-15T09:55:45;3.70;99.90
2897;DHT22;1458;49.728;9.228;2023-02-15T09:58:21;3.80;99.90
2897;DHT22;1458;49.728;9.228;2023-02-15T10:01:00;3.60;99.90
2897;DHT22;1458;49.728;9.228;2023-02-15T10:04:04;3.80;99.90
2897;DHT22;1458;49.728;9.228;2023-02-15T10:06:44;4.00;99.90
2897;DHT22;1458;49.728;9.228;2023-02-15T10:09:34;4.00;99.90
2897;DHT22;1458;49.728;9.228;2023-02-15T10:12:16;3.90;99.90
2897;DHT22;1458;49.728;9.228;2023-02-15T10:15:12;4.00;99.90
2897;DHT22;1458;49.728;9.228;2023-02-15T10:18:01;3.80;99.90
2897;DHT22;1458;49.728;9.228;2023-02-15T10:20:44;4.00;99.90
2897;DHT22;1458;49.728;9.228;2023-02-15T10:23:29;4.20;99.90
2897;DHT22;1458;49.728;9.228;2023-02-15T10:26:08;4.10;99.90
2897;DHT22;1458;49.728;9.228;2023-02-15T10:28:45;4.30;99.90
2897;DHT22;1458;49.728;9.228;2023-02-15T10:31:23;4.40;99.90
2897;DHT22;1458;49.728;9.228;2023-02-15T10:37:01;4.30;99.80
2897;DHT22;1458;49.728;9.228;2023-02-15T10:39:55;4.30;99.90
2897;DHT22;1458;49.728;9.228;2023-02-15T10:42:33;4.30;99.90
2897;DHT22;1458;49.728;9.228;2023-02-15T10:45:13;4.50;99.90
2897;DHT22;1458;49.728;9.228;2023-02-15T10:50:51;4.60;99.80
2897;DHT22;1458;49.728;9.228;2023-02-15T10:56:34;4.50;98.70
2897;DHT22;1458;49.728;9.228;2023-02-15T10:59:20;4.60;99.30
2897;DHT22;1458;49.728;9.228;2023-02-15T11:01:55;4.80;98.50
2897;DHT22;1458;49.728;9.228;2023-02-15T11:04:40;4.70;98.50
2897;DHT22;1458;49.728;9.228;2023-02-15T11:07:18;4.50;98.80
2897;DHT22;1458;49.728;9.228;2023-02-15T11:09:53;4.50;99.00
2897;DHT22;1458;49.728;9.228;2023-02-15T11:12:28;4.60;98.70
2897;DHT22;1458;49.728;9.228;2023-02-15T11:15:00;4.60;99.20
2897;DHT22;1458;49.728;9.228;2023-02-15T11:17:35;4.60;98.30
2897;DHT22;1458;49.728;9.228;2023-02-15T11:20:15;4.70;98.00
2897;DHT22;1458;49.728;9.228;2023-02-15T11:22:47;4.80;97.60
2897;DHT22;1458;49.728;9.228;2023-02-15T11:25:19;4.90;99.10
2897;DHT22;1458;49.728;9.228;2023-02-15T11:27:50;5.10;98.20
2897;DHT22;1458;49.728;9.228;2023-02-15T11:30:22;5.20;97.10
2897;DHT22;1458;49.728;9.228;2023-02-15T11:32:52;5.30;96.40
2897;DHT22;1458;49.728;9.228;2023-02-15T11:35:27;5.20;96.30
2897;DHT22;1458;49.728;9.228;2023-02-15T11:38:01;5.10;96.80
2897;DHT22;1458;49.728;9.228;2023-02-15T11:40:36;5.00;96.50
2897;DHT22;1458;49.728;9.228;2023-02-15T11:43:14;5.00;97.40
2897;DHT22;1458;49.728;9.228;2023-02-15T11:45:45;5.20;98.10
2897;DHT22;1458;49.728;9.228;2023-02-15T11:48:14;5.20;96.40
2897;DHT22;1458;49.728;9.228;2023-02-15T11:50:44;5.20;96.40
2897;DHT22;1458;49.728;9.228;2023-02-15T11:53:13;5.00;96.80
2897;DHT22;1458;49.728;9.228;2023-02-15T11:55:45;5.10;97.10
2897;DHT22;1458;49.728;9.228;2023-02-15T11:58:23;5.20;97.50
2897;DHT22;1458;49.728;9.228;2023-02-15T12:00:58;5.50;97.50
2897;DHT22;1458;49.728;9.228;2023-02-15T12:03:39;5.50;97.00
2897;DHT22;1458;49.728;9.228;2023-02-15T12:06:17;5.50;96.90
2897;DHT22;1458;49.728;9.228;2023-02-15T12:08:54;5.70;97.00
2897;DHT22;1458;49.728;9.228;2023-02-15T12:11:32;6.00;96.50
2897;DHT22;1458;49.728;9.228;2023-02-15T12:14:03;6.00;96.60
2897;DHT22;1458;49.728;9.228;2023-02-15T12:16:41;6.00;94.60
2897;DHT22;1458;49.728;9.228;2023-02-15T12:19:26;5.70;94.70
2897;DHT22;1458;49.728;9.228;2023-02-15T12:21:57;5.60;95.30
2897;DHT22;1458;49.728;9.228;2023-02-15T12:24:28;5.60;95.50
2897;DHT22;1458;49.728;9.228;2023-02-15T12:27:01;5.60;96.40
2897;DHT22;1458;49.728;9.228;2023-02-15T12:29:35;5.40;95.80
2897;DHT22;1458;49.728;9.228;2023-02-15T12:32:10;5.20;95.90
2897;DHT22;1458;49.728;9.228;2023-02-15T12:34:44;5.40;96.20
2897;DHT22;1458;49.728;9.228;2023-02-15T12:37:16;5.40;96.40
2897;DHT22;1458;49.728;9.228;2023-02-15T12:39:53;5.60;96.40
2897;DHT22;1458;49.728;9.228;2023-02-15T12:42:24;5.70;96.10
2897;DHT22;1458;49.728;9.228;2023-02-15T12:44:58;5.80;95.20
2897;DHT22;1458;49.728;9.228;2023-02-15T12:47:27;5.80;95.30
2897;DHT22;1458;49.728;9.228;2023-02-15T12:50:13;5.50;95.40
2897;DHT22;1458;49.728;9.228;2023-02-15T12:52:45;5.60;96.30
2897;DHT22;1458;49.728;9.228;2023-02-15T12:55:22;5.70;95.30
2897;DHT22;1458;49.728;9.228;2023-02-15T12:58:08;5.40;97.00
2897;DHT22;1458;49.728;9.228;2023-02-15T13:00:39;5.50;97.50
2897;DHT22;1458;49.728;9.228;2023-02-15T13:03:16;6.00;97.30
2897;DHT22;1458;49.728;9.228;2023-02-15T13:05:46;6.00;97.20
2897;DHT22;1458;49.728;9.228;2023-02-15T13:08:17;6.10;95.50
2897;DHT22;1458;49.728;9.228;2023-02-15T13:10:53;5.90;95.60
2897;DHT22;1458;49.728;9.228;2023-02-15T13:13:25;5.70;95.40
2897;DHT22;1458;49.728;9.228;2023-02-15T13:15:58;5.80;95.80
2897;DHT22;1458;49.728;9.228;2023-02-15T13:18:31;5.80;96.10
2897;DHT22;1458;49.728;9.228;2023-02-15T13:21:06;5.70;95.70
2897;DHT22;1458;49.728;9.228;2023-02-15T13:23:38;5.70;96.00
2897;DHT22;1458;49.728;9.228;2023-02-15T13:26:13;5.60;96.20
2897;DHT22;1458;49.728;9.228;2023-02-15T13:28:46;5.60;96.60
2897;DHT22;1458;49.728;9.228;2023-02-15T13:31:17;5.70;96.80
2897;DHT22;1458;49.728;9.228;2023-02-15T13:33:49;5.60;96.60
2897;DHT22;1458;49.728;9.228;2023-02-15T13:36:23;5.60;97.00
2897;DHT22;1458;49.728;9.228;2023-02-15T13:39:03;5.40;97.50
2897;DHT22;1458;49.728;9.228;2023-02-15T13:41:51;5.10;97.40
2897;DHT22;1458;49.728;9.228;2023-02-15T13:44:39;5.10;98.50
2897;DHT22;1458;49.728;9.228;2023-02-15T13:47:25;5.10;98.60
2897;DHT22;1458;49.728;9.228;2023-02-15T13:50:10;4.90;98.40
2897;DHT22;1458;49.728;9.228;2023-02-15T13:52:51;4.90;99.50
2897;DHT22;1458;49.728;9.228;2023-02-15T13:55:37;5.00;99.50
2897;DHT22;1458;49.728;9.228;2023-02-15T13:58:17;5.10;99.20
2897;DHT22;1458;49.728;9.228;2023-02-15T14:01:08;5.00;98.90
2897;DHT22;1458;49.728;9.228;2023-02-15T14:10:03;5.10;98.60
2897;DHT22;1458;49.728;9.228;2023-02-15T14:12:55;5.10;98.10
2897;DHT22;1458;49.728;9.228;2023-02-15T14:15:35;5.10;98.50
2897;DHT22;1458;49.728;9.228;2023-02-15T14:18:16;5.20;98.30
2897;DHT22;1458;49.728;9.228;2023-02-15T14:20:56;5.20;98.00
2897;DHT22;1458;49.728;9.228;2023-02-15T14:23:37;5.20;98.30
2897;DHT22;1458;49.728;9.228;2023-02-15T14:26:14;5.20;98.30
2897;DHT22;1458;49.728;9.228;2023-02-15T14:28:51;5.10;98.60
2897;DHT22;1458;49.728;9.228;2023-02-15T14:31:28;5.20;98.60
2897;DHT22;1458;49.728;9.228;2023-02-15T14:33:58;5.20;98.90
2897;DHT22;1458;49.728;9.228;2023-02-15T14:36:27;5.20;98.40
2897;DHT22;1458;49.728;9.228;2023-02-15T14:39:07;5.20;98.40
2897;DHT22;1458;49.728;9.228;2023-02-15T14:42:01;5.10;98.50
2897;DHT22;1458;49.728;9.228;2023-02-15T14:44:35;5.10;98.50
2897;DHT22;1458;49.728;9.228;2023-02-15T14:47:09;5.00;98.50
2897;DHT22;1458;49.728;9.228;2023-02-15T14:49:40;5.10;98.30
2897;DHT22;1458;49.728;9.228;2023-02-15T14:52:08;5.00;98.60
2897;DHT22;1458;49.728;9.228;2023-02-15T14:54:56;5.00;98.50
2897;DHT22;1458;49.728;9.228;2023-02-15T14:57:34;4.90;98.60
2897;DHT22;1458;49.728;9.228;2023-02-15T15:00:34;4.80;99.10
2897;DHT22;1458;49.728;9.228;2023-02-15T15:03:15;4.80;98.80
2897;DHT22;1458;49.728;9.228;2023-02-15T15:05:53;4.70;99.20
2897;DHT22;1458;49.728;9.228;2023-02-15T15:08:27;4.70;99.40
2897;DHT22;1458;49.728;9.228;2023-02-15T15:10:56;4.60;99.60
2897;DHT22;1458;49.728;9.228;2023-02-15T15:13:54;4.60;99.80
2897;DHT22;1458;49.728;9.228;2023-02-15T15:16:47;4.50;99.90
2897;DHT22;1458;49.728;9.228;2023-02-15T15:22:29;4.20;99.90
2897;DHT22;1458;49.728;9.228;2023-02-15T15:24:57;4.20;99.90
2897;DHT22;1458;49.728;9.228;2023-02-15T15:27:55;4.20;99.90
2897;DHT22;1458;49.728;9.228;2023-02-15T15:33:55;4.00;99.90
2897;DHT22;1458;49.728;9.228;2023-02-15T15:43:56;3.60;99.90
2897;DHT22;1458;49.728;9.228;2023-02-15T15:47:19;3.50;99.90
2897;DHT22;1458;49.728;9.228;2023-02-15T15:50:00;3.50;99.90
2897;DHT22;1458;49.728;9.228;2023-02-15T15:52:31;3.30;99.90
2897;DHT22;1458;49.728;9.228;2023-02-15T15:55:15;3.30;99.90
2897;DHT22;1458;49.728;9.228;2023-02-15T15:57:46;3.40;99.90
2897;DHT22;1458;49.728;9.228;2023-02-15T16:00:30;3.40;99.90
2897;DHT22;1458;49.728;9.228;2023-02-15T16:03:02;3.20;99.90
2897;DHT22;1458;49.728;9.228;2023-02-15T16:05:36;3.10;99.90
2897;DHT22;1458;49.728;9.228;2023-02-15T16:08:04;3.20;99.90
2897;DHT22;1458;49.728;9.228;2023-02-15T16:10:33;3.20;99.90
2897;DHT22;1458;49.728;9.228;2023-02-15T16:13:05;3.10;99.90
2897;DHT22;1458;49.728;9.228;2023-02-15T16:15:43;3.00;99.90
2897;DHT22;1458;49.728;9.228;2023-02-15T16:18:16;3.00;99.90
2897;DHT22;1458;49.728;9.228;2023-02-15T16:20:50;2.90;99.90
2897;DHT22;1458;49.728;9.228;2023-02-15T16:23:48;2.70;99.90
2897;DHT22;1458;49.728;9.228;2023-02-15T16:26:35;2.60;99.90
2897;DHT22;1458;49.728;9.228;2023-02-15T16:29:30;2.50;99.90
2897;DHT22;1458;49.728;9.228;2023-02-15T16:32:04;2.60;99.90
2897;DHT22;1458;49.728;9.228;2023-02-15T16:34:32;2.80;99.90
2897;DHT22;1458;49.728;9.228;2023-02-15T16:37:14;2.90;99.90
2897;DHT22;1458;49.728;9.228;2023-02-15T16:39:43;2.90;99.90
2897;DHT22;1458;49.728;9.228;2023-02-15T16:42:15;2.90;99.90
2897;DHT22;1458;49.728;9.228;2023-02-15T16:44:43;2.80;99.90
2897;DHT22;1458;49.728;9.228;2023-02-15T16:47:15;2.90;99.90
2897;DHT22;1458;49.728;9.228;2023-02-15T16:49:46;2.90;99.90
2897;DHT22;1458;49.728;9.228;2023-02-15T16:52:20;3.00;99.90
2897;DHT22;1458;49.728;9.228;2023-02-15T16:54:54;2.80;99.90
2897;DHT22;1458;49.728;9.228;2023-02-15T16:57:28;2.80;99.90
2897;DHT22;1458;49.728;9.228;2023-02-15T17:00:00;2.80;99.90
2897;DHT22;1458;49.728;9.228;2023-02-15T17:02:32;2.80;99.90
2897;DHT22;1458;49.728;9.228;2023-02-15T17:05:07;2.90;99.90
2897;DHT22;1458;49.728;9.228;2023-02-15T17:07:50;2.90;99.90
2897;DHT22;1458;49.728;9.228;2023-02-15T17:10:32;2.90;99.90
2897;DHT22;1458;49.728;9.228;2023-02-15T17:13:04;2.90;99.90
2897;DHT22;1458;49.728;9.228;2023-02-15T17:15:38;2.90;99.90
2897;DHT22;1458;49.728;9.228;2023-02-15T17:18:11;2.80;99.90
2897;DHT22;1458;49.728;9.228;2023-02-15T17:20:44;2.80;99.90
2897;DHT22;1458;49.728;9.228;2023-02-15T17:23:22;2.80;99.90
2897;DHT22;1458;49.728;9.228;2023-02-15T17:25:54;3.00;99.90
2897;DHT22;1458;49.728;9.228;2023-02-15T17:28:25;2.80;99.90
2897;DHT22;1458;49.728;9.228;2023-02-15T17:30:55;2.70;99.90
2897;DHT22;1458;49.728;9.228;2023-02-15T17:33:35;2.60;99.90
2897;DHT22;1458;49.728;9.228;2023-02-15T17:36:08;2.60;99.90
2897;DHT22;1458;49.728;9.228;2023-02-15T17:38:37;2.50;99.90
2897;DHT22;1458;49.728;9.228;2023-02-15T17:41:06;2.40;99.90
2897;DHT22;1458;49.728;9.228;2023-02-15T17:43:35;2.40;99.90
2897;DHT22;1458;49.728;9.228;2023-02-15T17:46:03;2.40;99.90